createdAt,value
2022-12-05T00:00:54.565Z,100289.69
2022-12-05T00:03:22.185Z,100248.28
2022-12-05T00:05:49.030Z,100294.06
2022-12-05T00:08:15.610Z,100284.56
2022-12-05T00:10:42.696Z,100284.56
2022-12-05T00:13:10.182Z,100288.84
2022-12-05T00:15:38.640Z,100288.91
2022-12-05T00:18:05.788Z,100259.56
2022-12-05T00:20:32.654Z,100276.72
2022-12-05T00:22:59.684Z,100267.22
2022-12-05T00:25:26.252Z,100297.56
2022-12-05T00:27:52.767Z,100297.59
2022-12-05T00:30:19.390Z,100263.03
2022-12-05T00:32:45.956Z,100305.38
2022-12-05T00:35:12.513Z,100313.22
2022-12-05T00:37:39.034Z,100312.34
2022-12-05T00:40:06.540Z,100311.53
2022-12-05T00:42:33.092Z,100309.81
2022-12-05T00:44:59.629Z,100310.69
2022-12-05T00:47:26.273Z,100317.69
2022-12-05T00:49:52.799Z,100315.91
2022-12-05T00:52:19.324Z,100315.94
2022-12-05T00:54:45.871Z,100293.41
2022-12-05T00:57:12.550Z,100322.88
2022-12-05T00:59:40.355Z,100332.41
2022-12-05T01:02:06.917Z,100327.22
2022-12-05T01:04:33.411Z,100313.41
2022-12-05T01:07:00.031Z,100335.03
2022-12-05T01:09:26.985Z,100319.50
2022-12-05T01:11:53.874Z,100329.84
2022-12-05T01:14:22.661Z,100344.53
2022-12-05T01:16:50.807Z,100342.78
2022-12-05T01:19:26.655Z,100344.53
2022-12-05T01:21:54.041Z,100352.31
2022-12-05T01:24:21.774Z,100354.03
2022-12-05T01:26:48.980Z,100339.34
2022-12-05T01:29:19.559Z,100352.31
2022-12-05T01:31:46.165Z,100348.84
2022-12-05T01:34:15.269Z,100352.31
2022-12-05T01:36:42.351Z,100351.44
2022-12-05T01:39:10.808Z,100346.25
2022-12-05T01:41:42.274Z,100357.50
2022-12-05T01:44:28.673Z,100350.53
2022-12-05T01:46:56.066Z,100360.06
2022-12-05T01:49:32.991Z,100360.03
2022-12-05T01:52:07.649Z,100353.88
2022-12-05T01:54:37.062Z,100348.75
2022-12-05T01:57:08.393Z,100356.53
2022-12-05T01:59:38.725Z,100348.84
2022-12-05T02:02:06.316Z,100366.94
2022-12-05T02:04:38.486Z,100365.19
2022-12-05T02:07:05.065Z,100366.94
2022-12-05T02:09:31.657Z,100352.19
2022-12-05T02:12:00.979Z,100367.81
2022-12-05T02:14:46.739Z,100365.19
2022-12-05T02:17:22.163Z,100359.09
2022-12-05T02:20:15.019Z,100352.19
2022-12-05T02:22:50.356Z,100329.72
2022-12-05T02:25:38.555Z,100367.78
2022-12-05T02:28:20.219Z,100376.50
2022-12-05T02:30:56.536Z,100371.31
2022-12-05T02:33:44.449Z,100336.72
2022-12-05T02:36:23.884Z,100371.25
2022-12-05T02:39:00.455Z,100373.88
2022-12-05T02:41:38.405Z,100373.03
2022-12-05T02:44:16.137Z,100362.75
2022-12-05T02:46:46.330Z,100336.72
2022-12-05T02:49:20.022Z,100366.09
2022-12-05T02:51:51.475Z,100344.47
2022-12-05T02:54:24.602Z,100366.03
2022-12-05T02:56:53.179Z,100360.84
2022-12-05T02:59:23.269Z,100358.22
2022-12-05T03:01:51.202Z,100332.34
2022-12-05T03:04:21.014Z,100366.88
2022-12-05T03:07:04.848Z,100353.88
2022-12-05T03:09:54.204Z,100359.88
2022-12-05T03:12:31.058Z,100368.47
2022-12-05T03:15:06.430Z,100332.22
2022-12-05T03:17:40.890Z,100342.59
2022-12-05T03:20:20.322Z,100375.47
2022-12-05T03:22:54.329Z,100342.66
2022-12-05T03:25:25.598Z,100372.00
2022-12-05T03:28:21.955Z,100380.69
2022-12-05T03:30:53.001Z,100387.69
2022-12-05T03:33:35.337Z,100382.56
2022-12-05T03:36:10.637Z,100394.69
2022-12-05T03:38:47.630Z,100369.56
2022-12-05T03:41:32.374Z,100356.63
2022-12-05T03:44:05.801Z,100400.69
2022-12-05T03:46:43.970Z,100400.66
2022-12-05T03:49:34.096Z,100399.00
2022-12-05T03:52:12.862Z,100413.81
2022-12-05T03:54:45.437Z,100413.91
2022-12-05T03:57:17.119Z,100415.63
2022-12-05T04:00:10.989Z,100419.13
2022-12-05T04:02:56.095Z,100420.00
2022-12-05T04:05:31.608Z,100417.44
2022-12-05T04:08:14.842Z,100412.19
2022-12-05T04:10:49.121Z,100367.25
2022-12-05T04:13:26.974Z,100408.69
2022-12-05T04:16:24.606Z,100411.31
2022-12-05T04:18:59.904Z,100406.13
2022-12-05T04:21:39.717Z,100419.19
2022-12-05T04:24:32.546Z,100384.66
2022-12-05T04:27:21.204Z,100423.56
2022-12-05T04:30:00.245Z,100396.78
2022-12-05T04:32:39.009Z,100418.41
2022-12-05T04:35:13.016Z,100415.81
2022-12-05T04:37:45.094Z,100421.03
2022-12-05T04:40:48.829Z,100425.28
2022-12-05T04:43:18.761Z,100426.19
2022-12-05T04:45:45.947Z,100427.03
2022-12-05T04:48:16.167Z,100439.19
2022-12-05T04:50:45.230Z,100439.19
2022-12-05T04:53:12.797Z,100425.28
2022-12-05T04:55:43.660Z,100432.22
2022-12-05T04:58:19.087Z,100439.19
2022-12-05T05:00:58.118Z,100443.50
2022-12-05T05:03:34.372Z,100444.41
2022-12-05T05:06:01.479Z,100439.19
2022-12-05T05:08:29.218Z,100444.41
2022-12-05T05:11:10.572Z,100443.47
2022-12-05T05:13:37.136Z,100441.75
2022-12-05T05:16:04.211Z,100435.72
2022-12-05T05:18:31.097Z,100446.97
2022-12-05T05:20:57.629Z,100440.03
2022-12-05T05:23:25.472Z,100455.56
2022-12-05T05:25:56.234Z,100459.91
2022-12-05T05:28:23.742Z,100460.78
2022-12-05T05:30:50.384Z,100445.19
2022-12-05T05:33:17.033Z,100459.06
2022-12-05T05:35:43.614Z,100453.84
2022-12-05T05:38:10.254Z,100437.47
2022-12-05T05:40:37.536Z,100460.81
2022-12-05T05:43:04.290Z,100454.78
2022-12-05T05:45:30.902Z,100458.28
2022-12-05T05:47:57.499Z,100465.19
2022-12-05T05:50:24.054Z,100460.81
2022-12-05T05:52:50.597Z,100450.44
2022-12-05T05:55:17.174Z,100421.88
2022-12-05T05:57:43.759Z,100453.03
2022-12-05T06:00:10.674Z,100465.19
2022-12-05T06:02:37.730Z,100437.50
2022-12-05T06:05:05.008Z,100455.59
2022-12-05T06:07:31.663Z,100460.81
2022-12-05T06:09:58.498Z,100452.09
2022-12-05T06:12:25.298Z,100456.47
2022-12-05T06:14:52.637Z,100446.13
2022-12-05T06:17:19.183Z,100466.13
2022-12-05T06:19:46.032Z,100466.13
2022-12-05T06:22:12.674Z,100435.88
2022-12-05T06:24:39.312Z,100478.31
2022-12-05T06:27:05.992Z,100473.88
2022-12-05T06:29:34.149Z,100475.59
2022-12-05T06:32:01.463Z,100479.91
2022-12-05T06:34:28.374Z,100483.41
2022-12-05T06:36:55.049Z,100490.38
2022-12-05T06:39:21.674Z,100482.53
2022-12-05T06:41:48.173Z,100479.09
2022-12-05T06:44:14.728Z,100488.63
2022-12-05T06:46:41.352Z,100492.09
2022-12-05T06:49:10.035Z,100488.66
2022-12-05T06:51:36.708Z,100493.84
2022-12-05T06:54:03.276Z,100488.75
2022-12-05T06:56:29.805Z,100501.63
2022-12-05T06:58:56.399Z,100506.84
2022-12-05T07:01:40.994Z,100495.56
2022-12-05T07:04:13.517Z,100476.56
2022-12-05T07:06:40.777Z,100502.53
2022-12-05T07:09:07.877Z,100509.50
2022-12-05T07:11:35.230Z,100507.75
2022-12-05T07:14:10.192Z,100513.78
2022-12-05T07:16:43.845Z,100519.84
2022-12-05T07:19:11.333Z,100509.38
2022-12-05T07:21:37.876Z,100512.00
2022-12-05T07:24:04.688Z,100515.50
2022-12-05T07:26:31.267Z,100529.41
2022-12-05T07:28:58.083Z,100531.97
2022-12-05T07:31:26.032Z,100522.34
2022-12-05T07:33:52.687Z,100523.16
2022-12-05T07:36:22.392Z,100531.00
2022-12-05T07:38:48.887Z,100528.38
2022-12-05T07:41:22.736Z,100500.63
2022-12-05T07:43:51.268Z,100535.16
2022-12-05T07:46:18.614Z,100536.13
2022-12-05T07:48:45.988Z,100517.22
2022-12-05T07:51:12.561Z,100545.75
2022-12-05T07:53:39.799Z,100517.25
2022-12-05T07:56:08.323Z,100555.28
2022-12-05T07:58:35.811Z,100553.38
2022-12-05T08:01:11.669Z,100551.53
2022-12-05T08:03:38.579Z,100551.66
2022-12-05T08:06:10.814Z,100566.44
2022-12-05T08:08:37.760Z,100567.31
2022-12-05T08:11:12.335Z,100573.31
2022-12-05T08:13:39.161Z,100568.94
2022-12-05T08:16:09.452Z,100570.59
2022-12-05T08:18:36.745Z,100569.72
2022-12-05T08:21:04.741Z,100576.69
2022-12-05T08:23:32.409Z,100580.28
2022-12-05T08:26:08.209Z,100582.88
2022-12-05T08:28:35.560Z,100576.84
2022-12-05T08:31:11.482Z,100572.44
2022-12-05T08:33:38.155Z,100581.94
2022-12-05T08:36:07.266Z,100566.28
2022-12-05T08:38:34.712Z,100591.41
2022-12-05T08:41:07.707Z,100594.06
2022-12-05T08:43:34.641Z,100595.84
2022-12-05T08:46:02.234Z,100603.63
2022-12-05T08:48:30.982Z,100608.72
2022-12-05T08:50:57.526Z,100608.59
2022-12-05T08:53:24.201Z,100619.75
2022-12-05T08:55:50.856Z,100617.91
2022-12-05T08:58:17.362Z,100630.03
2022-12-05T09:00:43.966Z,100620.38
2022-12-05T09:03:11.927Z,100597.88
2022-12-05T09:05:38.669Z,100623.88
2022-12-05T09:08:05.369Z,100622.94
2022-12-05T09:10:33.002Z,100609.81
2022-12-05T09:12:59.601Z,100619.44
2022-12-05T09:15:26.190Z,100629.00
2022-12-05T09:17:52.903Z,100627.25
2022-12-05T09:20:19.622Z,100635.03
2022-12-05T09:22:46.129Z,100631.63
2022-12-05T09:25:12.645Z,100632.59
2022-12-05T09:27:39.210Z,100632.78
2022-12-05T09:30:09.278Z,100632.88
2022-12-05T09:32:35.807Z,100638.97
2022-12-05T09:35:02.596Z,100642.44
2022-12-05T09:37:42.909Z,100648.50
2022-12-05T09:40:17.074Z,100644.88
2022-12-05T09:43:06.853Z,100647.34
2022-12-05T09:45:43.987Z,100649.06
2022-12-05T09:48:21.678Z,100655.22
2022-12-05T09:51:01.090Z,100648.44
2022-12-05T09:53:30.902Z,100641.44
2022-12-05T09:56:12.504Z,100635.38
2022-12-05T09:58:46.329Z,100643.28
2022-12-05T10:01:51.538Z,100645.06
2022-12-05T10:05:00.667Z,100647.72
2022-12-05T10:08:08.757Z,100638.16
2022-12-05T10:10:57.315Z,100651.28
2022-12-05T10:14:12.048Z,100637.31
2022-12-05T10:16:51.762Z,100637.22
2022-12-05T10:19:27.599Z,100644.97
2022-12-05T10:22:20.304Z,100631.81
2022-12-05T10:24:54.712Z,100608.38
2022-12-05T10:27:38.205Z,100633.41
2022-12-05T10:30:14.806Z,100629.09
2022-12-05T10:32:53.564Z,100606.59
2022-12-05T10:35:38.852Z,100630.75
2022-12-05T10:38:11.170Z,100621.25
2022-12-05T10:40:43.058Z,100592.75
2022-12-05T10:43:14.518Z,100597.06
2022-12-05T10:45:46.568Z,100596.88
2022-12-05T10:48:16.672Z,100617.47
2022-12-05T10:50:48.665Z,100612.19
2022-12-05T10:53:38.352Z,100613.72
2022-12-05T10:56:43.651Z,100617.19
2022-12-05T10:59:22.243Z,100564.50
2022-12-05T11:01:53.780Z,100600.03
2022-12-05T11:04:30.743Z,100611.22
2022-12-05T11:07:05.539Z,100608.53
2022-12-05T11:09:36.569Z,100598.84
2022-12-05T11:12:17.186Z,100615.44
2022-12-05T11:15:21.861Z,100612.97
2022-12-05T11:17:50.156Z,100595.72
2022-12-05T11:20:19.724Z,100619.16
2022-12-05T11:22:56.602Z,100619.06
2022-12-05T11:25:35.644Z,100616.38
2022-12-05T11:28:17.664Z,100618.13
2022-12-05T11:31:20.950Z,100616.13
2022-12-05T11:34:20.084Z,100615.03
2022-12-05T11:37:00.102Z,100617.84
2022-12-05T11:39:26.692Z,100617.13
2022-12-05T11:41:56.260Z,100631.16
2022-12-05T11:44:34.914Z,100630.31
2022-12-05T11:47:23.235Z,100615.53
2022-12-05T11:50:01.917Z,100623.34
2022-12-05T11:53:04.378Z,100623.38
2022-12-05T11:55:39.715Z,100615.56
2022-12-05T11:58:31.153Z,100617.50
2022-12-05T12:01:03.788Z,100624.38
2022-12-05T12:03:40.268Z,100604.47
2022-12-05T12:06:37.603Z,100630.47
2022-12-05T12:09:42.157Z,100622.56
2022-12-05T12:12:35.841Z,100599.16
2022-12-05T12:15:21.172Z,100625.06
2022-12-05T12:18:04.502Z,100591.81
2022-12-05T12:20:57.449Z,100588.22
2022-12-05T12:23:52.482Z,100626.31
2022-12-05T12:26:27.046Z,100618.41
2022-12-05T12:29:16.021Z,100612.25
2022-12-05T12:31:54.498Z,100620.22
2022-12-05T12:34:56.590Z,100614.34
2022-12-05T12:37:58.213Z,100603.97
2022-12-05T12:40:39.330Z,100623.13
2022-12-05T12:43:54.960Z,100622.16
2022-12-05T12:46:38.178Z,100619.44
2022-12-05T12:49:41.834Z,100622.16
2022-12-05T12:52:15.102Z,100592.81
2022-12-05T12:55:09.123Z,100585.78
2022-12-05T12:57:56.656Z,100620.50
2022-12-05T13:00:31.993Z,100618.75
2022-12-05T13:03:17.610Z,100619.56
2022-12-05T13:06:28.364Z,100619.44
2022-12-05T13:09:02.423Z,100621.31
2022-12-05T13:11:35.148Z,100625.56
2022-12-05T13:14:02.298Z,100623.72
2022-12-05T13:16:34.187Z,100609.78
2022-12-05T13:19:01.672Z,100622.66
2022-12-05T13:21:28.812Z,100624.41
2022-12-05T13:24:03.260Z,100623.47
2022-12-05T13:26:36.571Z,100622.56
2022-12-05T13:29:04.624Z,100594.16
2022-12-05T13:31:35.337Z,100619.38
2022-12-05T13:34:02.047Z,100623.63
2022-12-05T13:36:47.533Z,100615.03
2022-12-05T13:39:32.471Z,100617.69
2022-12-05T13:42:15.390Z,100622.94
2022-12-05T13:45:05.157Z,100623.72
2022-12-05T13:47:52.112Z,100624.50
2022-12-05T13:50:52.084Z,100630.50
2022-12-05T13:53:42.348Z,100634.00
2022-12-05T13:56:14.757Z,100634.00
2022-12-05T13:58:42.888Z,100632.16
2022-12-05T14:01:27.771Z,100628.63
2022-12-05T14:04:00.769Z,100621.75
2022-12-05T14:06:50.603Z,100633.22
2022-12-05T14:09:17.035Z,100628.03
2022-12-05T14:12:12.272Z,100633.28
2022-12-05T14:14:57.137Z,100639.38
2022-12-05T14:17:32.233Z,100631.56
2022-12-05T14:20:10.815Z,100632.47
2022-12-05T14:22:52.446Z,100648.22
2022-12-05T14:25:51.656Z,100642.97
2022-12-05T14:28:28.200Z,100648.22
2022-12-05T14:31:23.832Z,100629.94
2022-12-05T14:34:05.621Z,100647.38
2022-12-05T14:36:33.806Z,100645.63
2022-12-05T14:39:00.399Z,100640.31
2022-12-05T14:41:34.686Z,100649.91
2022-12-05T14:44:08.440Z,100649.97
2022-12-05T14:46:35.568Z,100650.81
2022-12-05T14:49:51.692Z,100657.81
2022-12-05T14:52:23.226Z,100649.06
2022-12-05T14:54:53.985Z,100645.53
2022-12-05T14:57:21.253Z,100645.56
2022-12-05T15:00:01.498Z,100649.06
2022-12-05T15:02:39.565Z,100646.44
2022-12-05T15:05:21.267Z,100645.59
2022-12-05T15:07:48.496Z,100651.66
2022-12-05T15:10:25.568Z,100647.19
2022-12-05T15:12:58.664Z,100644.50
2022-12-05T15:15:40.063Z,100639.31
2022-12-05T15:18:24.717Z,100644.63
2022-12-05T15:20:58.413Z,100643.81
2022-12-05T15:24:12.282Z,100646.44
2022-12-05T15:26:48.923Z,100642.97
2022-12-05T15:29:28.010Z,100646.47
2022-12-05T15:32:03.756Z,100636.00
2022-12-05T15:34:48.175Z,100645.59
2022-12-05T15:37:17.283Z,100644.75
2022-12-05T15:40:00.552Z,100647.38
2022-12-05T15:42:41.464Z,100653.50
2022-12-05T15:45:14.101Z,100646.47
2022-12-05T15:47:45.588Z,100643.88
2022-12-05T15:50:33.133Z,100643.81
2022-12-05T15:53:29.732Z,100649.06
2022-12-05T15:56:04.728Z,100639.47
2022-12-05T15:58:41.676Z,100649.94
2022-12-05T16:01:20.111Z,100655.19
2022-12-05T16:03:52.338Z,100655.16
2022-12-05T16:07:02.998Z,100655.97
2022-12-05T16:09:33.340Z,100631.78
2022-12-05T16:12:39.357Z,100663.84
2022-12-05T16:15:20.354Z,100659.50
2022-12-05T16:17:52.336Z,100657.78
2022-12-05T16:20:18.985Z,100663.00
2022-12-05T16:22:51.916Z,100663.00
2022-12-05T16:25:24.187Z,100659.50
2022-12-05T16:27:59.135Z,100663.81
2022-12-05T16:30:26.638Z,100663.78
2022-12-05T16:33:11.627Z,100664.56
2022-12-05T16:35:50.194Z,100662.84
2022-12-05T16:38:16.696Z,100642.06
2022-12-05T16:40:45.830Z,100639.50
2022-12-05T16:43:35.931Z,100663.72
2022-12-05T16:46:13.058Z,100641.28
2022-12-05T16:48:44.719Z,100664.59
2022-12-05T16:51:11.204Z,100666.31
2022-12-05T16:53:39.354Z,100661.06
2022-12-05T16:56:07.613Z,100662.00
2022-12-05T16:58:35.700Z,100655.03
2022-12-05T17:01:07.031Z,100656.75
2022-12-05T17:03:35.853Z,100649.91
2022-12-05T17:06:03.590Z,100665.38
2022-12-05T17:08:30.156Z,100659.25
2022-12-05T17:10:57.939Z,100667.88
2022-12-05T17:13:24.666Z,100672.25
2022-12-05T17:15:51.277Z,100665.31
2022-12-05T17:18:20.744Z,100671.41
2022-12-05T17:20:53.278Z,100671.31
2022-12-05T17:23:19.820Z,100653.16
2022-12-05T17:25:50.317Z,100673.81
2022-12-05T17:28:16.895Z,100666.81
2022-12-05T17:30:43.413Z,100676.38
2022-12-05T17:33:11.795Z,100653.78
2022-12-05T17:35:38.865Z,100660.75
2022-12-05T17:38:05.546Z,100671.91
2022-12-05T17:40:33.098Z,100678.03
2022-12-05T17:43:00.310Z,100688.56
2022-12-05T17:45:26.843Z,100681.50
2022-12-05T17:47:53.477Z,100684.13
2022-12-05T17:50:22.599Z,100689.25
2022-12-05T17:52:50.408Z,100691.00
2022-12-05T17:55:20.531Z,100668.44
2022-12-05T17:57:47.568Z,100682.38
2022-12-05T18:00:16.471Z,100688.56
2022-12-05T18:02:45.063Z,100677.25
2022-12-05T18:05:13.529Z,100684.16
2022-12-05T18:07:41.641Z,100687.63
2022-12-05T18:12:57.041Z,100691.88
2022-12-05T18:15:23.580Z,100693.72
2022-12-05T18:17:53.371Z,100694.66
2022-12-05T18:20:20.043Z,100693.84
2022-12-05T18:22:46.592Z,100659.13
2022-12-05T18:25:13.096Z,100686.03
2022-12-05T18:27:39.654Z,100692.13
2022-12-05T18:30:08.198Z,100692.97
2022-12-05T18:32:34.798Z,100692.81
2022-12-05T18:35:04.689Z,100691.88
2022-12-05T18:37:40.869Z,100691.78
2022-12-05T18:40:09.577Z,100685.69
2022-12-05T18:42:36.675Z,100680.56
2022-12-05T18:45:03.974Z,100702.22
2022-12-05T18:47:32.675Z,100627.78
2022-12-05T18:50:00.513Z,100687.47
2022-12-05T18:52:27.008Z,100685.75
2022-12-05T18:55:09.179Z,100687.47
2022-12-05T18:57:40.063Z,100691.03
2022-12-05T19:00:07.453Z,100693.72
2022-12-05T19:02:35.252Z,100685.91
2022-12-05T19:05:01.960Z,100691.09
2022-12-05T19:07:28.495Z,100695.41
2022-12-05T19:09:55.046Z,100698.88
2022-12-05T19:12:21.690Z,100685.78
2022-12-05T19:14:48.251Z,100689.25
2022-12-05T19:17:14.826Z,100685.75
2022-12-05T19:19:41.390Z,100686.47
2022-12-05T19:22:07.886Z,100689.06
2022-12-05T19:24:34.468Z,100690.94
2022-12-05T19:27:00.961Z,100686.66
2022-12-05T19:29:27.518Z,100687.53
2022-12-05T19:31:54.120Z,100681.53
2022-12-05T19:34:20.750Z,100690.28
2022-12-05T19:36:47.299Z,100666.91
2022-12-05T19:39:17.367Z,100692.03
2022-12-05T19:41:44.625Z,100690.38
2022-12-05T19:44:11.526Z,100692.22
2022-12-05T19:46:38.554Z,100679.19
2022-12-05T19:49:10.925Z,100698.28
2022-12-05T19:51:37.846Z,100669.63
2022-12-05T19:54:05.799Z,100696.34
2022-12-05T19:56:34.580Z,100698.91
2022-12-05T19:59:01.578Z,100695.47
2022-12-05T20:01:33.826Z,100701.53
2022-12-05T20:04:09.407Z,100689.41
2022-12-05T20:06:38.522Z,100694.78
2022-12-05T20:09:06.515Z,100703.38
2022-12-05T20:11:33.032Z,100710.34
2022-12-05T20:14:01.415Z,100704.19
2022-12-05T20:16:29.494Z,100703.28
2022-12-05T20:18:59.014Z,100691.09
2022-12-05T20:21:27.709Z,100675.53
2022-12-05T20:23:54.614Z,100670.47
2022-12-05T20:26:28.599Z,100707.00
2022-12-05T20:28:58.460Z,100703.63
2022-12-05T20:31:30.384Z,100703.72
2022-12-05T20:33:57.269Z,100677.78
2022-12-05T20:36:30.439Z,100680.53
2022-12-05T20:39:02.568Z,100703.13
2022-12-05T20:41:29.743Z,100684.13
2022-12-05T20:44:02.397Z,100710.09
2022-12-05T20:46:29.967Z,100708.19
2022-12-05T20:48:56.682Z,100694.19
2022-12-05T20:51:26.430Z,100709.94
2022-12-05T20:53:53.105Z,100712.63
2022-12-05T20:56:22.808Z,100714.38
2022-12-05T20:58:50.948Z,100701.38
2022-12-05T21:01:20.194Z,100710.97
2022-12-05T21:03:49.778Z,100709.97
2022-12-05T21:06:19.845Z,100670.03
2022-12-05T21:08:46.419Z,100663.06
2022-12-05T21:11:13.281Z,100670.00
2022-12-05T21:13:40.348Z,100695.97
2022-12-05T21:16:11.872Z,100696.81
2022-12-05T21:18:39.869Z,100703.88
2022-12-05T21:21:11.091Z,100698.66
2022-12-05T21:23:37.580Z,100704.78
2022-12-05T21:26:06.741Z,100703.13
2022-12-05T21:28:34.482Z,100702.28
2022-12-05T21:31:22.413Z,100691.03
2022-12-05T21:33:54.300Z,100700.59
2022-12-05T21:36:21.871Z,100713.66
2022-12-05T21:38:52.420Z,100703.13
2022-12-05T21:41:22.707Z,100685.03
2022-12-05T21:43:54.112Z,100675.50
2022-12-05T21:46:22.248Z,100703.22
2022-12-05T21:48:48.867Z,100701.44
2022-12-05T21:51:15.585Z,100698.81
2022-12-05T21:53:42.167Z,100707.47
2022-12-05T21:56:15.589Z,100703.13
2022-12-05T21:58:43.464Z,100690.19
2022-12-05T22:01:19.279Z,100701.50
2022-12-05T22:03:46.267Z,100698.84
2022-12-05T22:06:15.404Z,100711.09
2022-12-05T22:08:42.616Z,100706.72
2022-12-05T22:11:11.887Z,100703.25
2022-12-05T22:13:38.979Z,100694.63
2022-12-05T22:16:06.903Z,100709.41
2022-12-05T22:18:34.672Z,100715.50
2022-12-05T22:21:13.326Z,100704.22
2022-12-05T22:23:40.113Z,100704.19
2022-12-05T22:26:08.545Z,100707.59
2022-12-05T22:28:36.247Z,100695.50
2022-12-05T22:31:05.993Z,100696.31
2022-12-05T22:33:35.424Z,100704.13
2022-12-05T22:36:03.348Z,100698.03
2022-12-05T22:38:34.927Z,100702.31
2022-12-05T22:41:04.856Z,100694.50
2022-12-05T22:43:33.285Z,100699.66
2022-12-05T22:46:12.281Z,100663.22
2022-12-05T22:48:38.944Z,100689.22
2022-12-05T22:51:07.050Z,100688.38
2022-12-05T22:53:34.559Z,100668.56
2022-12-05T22:56:06.544Z,100673.78
2022-12-05T22:58:34.153Z,100664.09
2022-12-05T23:01:10.866Z,100691.78
2022-12-05T23:03:37.510Z,100669.94
2022-12-05T23:06:11.180Z,100684.59
2022-12-05T23:08:38.867Z,100682.72
2022-12-05T23:11:06.879Z,100679.16
2022-12-05T23:13:35.257Z,100684.38
2022-12-05T23:16:22.465Z,100686.09
2022-12-05T23:18:55.868Z,100683.66
2022-12-05T23:21:29.527Z,100684.63
2022-12-05T23:23:59.729Z,100684.69
2022-12-05T23:26:30.686Z,100684.78
2022-12-05T23:28:57.273Z,100670.94
2022-12-05T23:31:23.948Z,100680.50
2022-12-05T23:33:51.604Z,100674.38
2022-12-05T23:36:19.529Z,100678.72
2022-12-05T23:38:46.896Z,100674.38
2022-12-05T23:41:17.953Z,100670.09
2022-12-05T23:43:45.443Z,100666.56
2022-12-05T23:46:13.587Z,100670.16
2022-12-05T23:48:40.357Z,100669.34
2022-12-05T23:51:10.819Z,100679.78
2022-12-05T23:53:39.689Z,100645.13
2022-12-05T23:56:16.131Z,100676.19
2022-12-05T23:58:43.789Z,100672.66
